Time;durP1;ratioP1;P1;durP2;ratioP2;P2;SDS_P1;SDS_P2;PMS_P1;PMS_P2;Temp;Humidity;BMP_temperature;BMP_pressure;BME280_temperature;BME280_humidity;BME280_pressure;Samples;Min_cycle;Max_cycle;Signal;HPM_P1;HPM_P2
2021/12/03 00:00:16;;;;;;;5.43;3.13;;;;;;;;;;6128203;23;20027;-77
2021/12/03 00:02:42;;;;;;;5.75;2.90;;;;;;;;;;6155138;23;20024;-77
2021/12/03 00:05:09;;;;;;;4.32;2.90;;;;;;;;;;6128791;23;20445;-76
2021/12/03 00:07:37;;;;;;;5.15;2.95;;;;;;;;;;6205905;23;20028;-76
2021/12/03 00:10:04;;;;;;;4.00;3.03;;;;;;;;;;6178875;23;20012;-76
2021/12/03 00:12:30;;;;;;;6.63;3.22;;;;;;;;;;6178050;23;20016;-77
2021/12/03 00:14:57;;;;;;;5.28;3.45;;;;;;;;;;6128943;23;20063;-76
2021/12/03 00:17:23;;;;;;;8.20;3.80;;;;;;;;;;6179671;23;20024;-77
2021/12/03 00:19:49;;;;;;;8.35;4.07;;;;;;;;;;6155327;23;20127;-77
2021/12/03 00:22:15;;;;;;;5.22;3.72;;;;;;;;;;6127254;23;20123;-77
2021/12/03 00:24:41;;;;;;;4.63;3.50;;;;;;;;;;6129859;23;20532;-76
2021/12/03 00:27:07;;;;;;;5.38;3.80;;;;;;;;;;6127707;23;20020;-76
2021/12/03 00:29:33;;;;;;;10.68;4.15;;;;;;;;;;6153590;23;20024;-76
2021/12/03 00:31:59;;;;;;;7.40;4.93;;;;;;;;;;6127246;23;20051;-77
2021/12/03 00:34:27;;;;;;;8.32;3.92;;;;;;;;;;6154789;23;20021;-77
2021/12/03 00:36:54;;;;;;;7.00;4.38;;;;;;;;;;6153644;23;20082;-77
2021/12/03 00:39:20;;;;;;;8.07;4.65;;;;;;;;;;6128602;23;20017;-76
2021/12/03 00:41:49;;;;;;;7.88;3.90;;;;;;;;;;6129946;23;20119;-77
2021/12/03 00:44:15;;;;;;;6.97;4.25;;;;;;;;;;6176761;23;20108;-77
2021/12/03 00:46:41;;;;;;;8.40;3.97;;;;;;;;;;6153626;23;20017;-77
2021/12/03 00:49:07;;;;;;;9.80;4.65;;;;;;;;;;6175617;23;20028;-77
2021/12/03 00:51:33;;;;;;;8.13;4.80;;;;;;;;;;6153882;23;20425;-77
2021/12/03 00:53:59;;;;;;;10.93;5.70;;;;;;;;;;6150756;23;20095;-76
2021/12/03 00:56:25;;;;;;;10.82;5.25;;;;;;;;;;6179405;23;20108;-77
2021/12/03 00:58:51;;;;;;;12.25;6.72;;;;;;;;;;6128150;23;20021;-77
2021/12/03 01:01:17;;;;;;;11.85;6.63;;;;;;;;;;6125554;23;20521;-77
2021/12/03 01:03:43;;;;;;;11.23;7.00;;;;;;;;;;6153740;23;20020;-77
2021/12/03 01:06:10;;;;;;;11.80;7.78;;;;;;;;;;6126984;23;20017;-76
2021/12/03 01:08:36;;;;;;;10.75;7.22;;;;;;;;;;6129096;23;20020;-77
2021/12/03 01:11:03;;;;;;;14.30;8.43;;;;;;;;;;6126157;23;20472;-77
2021/12/03 01:13:29;;;;;;;17.58;8.80;;;;;;;;;;6178354;23;20029;-77
2021/12/03 01:15:55;;;;;;;12.95;8.45;;;;;;;;;;6152376;23;20362;-77
2021/12/03 01:18:21;;;;;;;13.38;8.10;;;;;;;;;;6177821;23;20407;-77
2021/12/03 01:20:47;;;;;;;11.45;7.57;;;;;;;;;;6154448;23;20024;-76
2021/12/03 01:23:13;;;;;;;14.18;8.10;;;;;;;;;;6151628;23;20120;-77
2021/12/03 01:25:40;;;;;;;16.52;8.30;;;;;;;;;;6177973;23;20290;-77
2021/12/03 01:28:06;;;;;;;14.48;8.10;;;;;;;;;;6126533;23;20100;-76
2021/12/03 01:30:32;;;;;;;16.23;7.72;;;;;;;;;;6153001;23;20096;-77
2021/12/03 01:32:58;;;;;;;17.08;8.65;;;;;;;;;;6150826;23;20027;-76
2021/12/03 01:35:25;;;;;;;14.90;8.30;;;;;;;;;;6129651;23;20035;-77
2021/12/03 01:37:51;;;;;;;9.27;7.22;;;;;;;;;;6130073;23;20120;-77
2021/12/03 01:40:18;;;;;;;12.52;8.00;;;;;;;;;;6127716;23;20020;-77
2021/12/03 01:42:45;;;;;;;15.85;7.97;;;;;;;;;;6152777;23;20051;-77
2021/12/03 01:45:12;;;;;;;14.23;8.43;;;;;;;;;;6152226;23;20420;-77
2021/12/03 01:47:40;;;;;;;14.85;7.72;;;;;;;;;;6129180;23;20028;-76
2021/12/03 01:50:06;;;;;;;13.75;8.02;;;;;;;;;;6152486;23;20020;-76
2021/12/03 01:52:32;;;;;;;14.32;8.95;;;;;;;;;;6151783;23;20023;-76
2021/12/03 01:55:00;;;;;;;13.57;7.57;;;;;;;;;;6127924;23;20100;-76
2021/12/03 01:57:26;;;;;;;12.20;8.37;;;;;;;;;;6127871;23;20122;-76
2021/12/03 01:59:52;;;;;;;18.27;9.27;;;;;;;;;;6129319;23;20267;-77
2021/12/03 02:02:18;;;;;;;16.13;9.05;;;;;;;;;;6147695;23;20934;-76
2021/12/03 02:04:44;;;;;;;13.68;8.63;;;;;;;;;;6128202;23;20060;-76
2021/12/03 02:07:10;;;;;;;14.70;10.23;;;;;;;;;;6174487;23;20112;-76
2021/12/03 02:09:36;;;;;;;16.92;10.98;;;;;;;;;;6177444;23;20469;-77
2021/12/03 02:12:03;;;;;;;18.05;12.13;;;;;;;;;;6201365;23;20017;-77
2021/12/03 02:14:29;;;;;;;19.25;11.90;;;;;;;;;;6127588;23;20036;-76
2021/12/03 02:16:55;;;;;;;22.85;14.40;;;;;;;;;;6176317;23;20441;-77
2021/12/03 02:19:21;;;;;;;21.73;13.10;;;;;;;;;;6151654;23;20029;-76
2021/12/03 02:21:47;;;;;;;21.30;14.45;;;;;;;;;;6176681;23;20023;-77
2021/12/03 02:24:14;;;;;;;24.88;14.48;;;;;;;;;;6177624;23;20175;-76
2021/12/03 02:26:41;;;;;;;21.20;15.55;;;;;;;;;;6177161;23;20370;-77
2021/12/03 02:29:08;;;;;;;23.20;16.77;;;;;;;;;;6202194;23;20453;-76
2021/12/03 02:31:34;;;;;;;31.30;19.38;;;;;;;;;;6150500;23;20517;-76
2021/12/03 02:34:00;;;;;;;25.55;18.50;;;;;;;;;;6149709;23;20495;-76
2021/12/03 02:36:26;;;;;;;26.33;19.70;;;;;;;;;;6152003;23;20449;-76
2021/12/03 02:38:52;;;;;;;30.02;20.70;;;;;;;;;;6178003;23;20016;-76
2021/12/03 02:41:18;;;;;;;29.10;20.58;;;;;;;;;;6124742;23;20139;-76
2021/12/03 02:43:44;;;;;;;32.10;22.48;;;;;;;;;;6127773;23;20044;-76
2021/12/03 02:46:10;;;;;;;32.80;23.30;;;;;;;;;;6175313;23;20103;-76
2021/12/03 02:48:36;;;;;;;30.92;22.80;;;;;;;;;;6126819;23;20104;-75
2021/12/03 02:51:03;;;;;;;29.52;22.27;;;;;;;;;;6151330;23;20505;-76
2021/12/03 02:53:29;;;;;;;28.45;24.52;;;;;;;;;;6128199;23;20043;-76
2021/12/03 02:55:55;;;;;;;31.77;23.75;;;;;;;;;;6128012;23;20103;-76
2021/12/03 02:58:21;;;;;;;29.20;22.90;;;;;;;;;;6151056;23;20020;-76
2021/12/03 03:00:48;;;;;;;29.23;22.98;;;;;;;;;;6152542;23;20290;-76
2021/12/03 03:03:14;;;;;;;31.63;23.02;;;;;;;;;;6201190;23;20024;-76
2021/12/03 03:05:40;;;;;;;31.55;23.17;;;;;;;;;;6176121;23;20046;-76
2021/12/03 03:08:06;;;;;;;27.25;21.98;;;;;;;;;;6201770;23;20388;-76
2021/12/03 03:10:39;;;;;;;26.95;21.75;;;;;;;;;;6177720;23;20091;-76
2021/12/03 03:13:05;;;;;;;30.75;21.85;;;;;;;;;;6174965;23;20016;-76
2021/12/03 03:15:31;;;;;;;28.95;22.65;;;;;;;;;;6151857;23;20031;-76
2021/12/03 03:17:58;;;;;;;28.83;22.63;;;;;;;;;;6201857;23;20020;-76
2021/12/03 03:20:24;;;;;;;32.25;22.67;;;;;;;;;;6177170;23;20024;-76
2021/12/03 03:22:50;;;;;;;30.02;22.13;;;;;;;;;;6177444;23;20021;-76
2021/12/03 03:25:16;;;;;;;30.55;22.33;;;;;;;;;;6126980;23;21012;-76
2021/12/03 03:27:42;;;;;;;27.33;21.40;;;;;;;;;;6177018;23;20063;-76
2021/12/03 03:30:11;;;;;;;29.98;21.95;;;;;;;;;;6150625;23;20013;-76
2021/12/03 03:32:37;;;;;;;28.02;21.73;;;;;;;;;;6152755;23;20024;-76
2021/12/03 03:35:03;;;;;;;22.45;19.77;;;;;;;;;;6151021;23;20028;-76
2021/12/03 03:37:29;;;;;;;26.92;20.95;;;;;;;;;;6128736;23;20388;-76
2021/12/03 03:39:55;;;;;;;32.75;22.60;;;;;;;;;;6128978;23;20044;-79
2021/12/03 03:42:21;;;;;;;26.33;21.23;;;;;;;;;;6176337;23;20350;-79
2021/12/03 03:44:47;;;;;;;27.10;21.55;;;;;;;;;;6178373;23;20404;-79
2021/12/03 03:47:14;;;;;;;26.15;21.35;;;;;;;;;;6175659;23;20166;-77
2021/12/03 03:49:40;;;;;;;32.65;22.75;;;;;;;;;;6153834;23;20028;-76
2021/12/03 03:52:06;;;;;;;29.10;22.15;;;;;;;;;;6150333;23;20020;-77
2021/12/03 03:54:32;;;;;;;28.60;21.90;;;;;;;;;;6128848;23;20389;-76
2021/12/03 03:56:59;;;;;;;31.67;23.42;;;;;;;;;;6124893;23;20089;-76
2021/12/03 03:59:25;;;;;;;30.58;21.85;;;;;;;;;;6152990;23;20043;-76
2021/12/03 04:01:51;;;;;;;30.63;23.17;;;;;;;;;;6176311;23;20025;-77
2021/12/03 04:04:17;;;;;;;28.60;21.63;;;;;;;;;;6126096;23;20182;-77
2021/12/03 04:06:43;;;;;;;29.20;22.60;;;;;;;;;;6152271;23;20024;-77
2021/12/03 04:09:09;;;;;;;27.48;20.58;;;;;;;;;;6174808;23;20013;-77
2021/12/03 04:11:35;;;;;;;25.60;22.10;;;;;;;;;;6176889;23;20322;-77
2021/12/03 04:14:05;;;;;;;29.70;22.15;;;;;;;;;;6149309;23;20075;-77
2021/12/03 04:16:31;;;;;;;31.17;22.60;;;;;;;;;;6126958;23;20144;-77
2021/12/03 04:18:58;;;;;;;28.48;22.40;;;;;;;;;;6126344;23;20393;-76
2021/12/03 04:21:24;;;;;;;29.10;22.25;;;;;;;;;;6128332;23;20032;-77
2021/12/03 04:23:50;;;;;;;29.70;22.48;;;;;;;;;;6128757;23;20100;-77
2021/12/03 04:26:16;;;;;;;27.55;22.10;;;;;;;;;;6175992;23;21073;-77
2021/12/03 04:28:42;;;;;;;28.20;22.45;;;;;;;;;;6155205;23;20445;-77
2021/12/03 04:31:08;;;;;;;25.10;22.27;;;;;;;;;;6175485;23;20345;-77
2021/12/03 04:33:34;;;;;;;28.52;22.17;;;;;;;;;;6155040;23;20464;-77
2021/12/03 04:36:00;;;;;;;30.05;22.25;;;;;;;;;;6153567;23;20017;-77
2021/12/03 04:38:26;;;;;;;29.65;22.13;;;;;;;;;;6154770;23;20048;-77
2021/12/03 04:40:53;;;;;;;27.02;21.63;;;;;;;;;;6206495;23;20571;-77
2021/12/03 04:43:19;;;;;;;28.80;22.70;;;;;;;;;;6204720;23;20035;-77
2021/12/03 04:45:45;;;;;;;27.55;21.90;;;;;;;;;;6179633;23;20051;-77
2021/12/03 04:48:11;;;;;;;25.77;21.85;;;;;;;;;;6177872;23;20028;-77
2021/12/03 04:50:38;;;;;;;28.67;22.35;;;;;;;;;;6130723;23;20020;-77
2021/12/03 04:53:05;;;;;;;26.93;21.43;;;;;;;;;;6153637;23;20427;-76
2021/12/03 04:55:31;;;;;;;30.58;22.08;;;;;;;;;;6156293;23;20027;-77
2021/12/03 04:57:57;;;;;;;28.27;21.15;;;;;;;;;;6153365;23;20029;-76
2021/12/03 05:00:27;;;;;;;32.60;22.35;;;;;;;;;;6180285;23;20085;-77
2021/12/03 05:02:54;;;;;;;26.35;22.25;;;;;;;;;;6154233;23;20468;-77
2021/12/03 05:05:23;;;;;;;25.33;22.13;;;;;;;;;;6128751;23;20207;-77
2021/12/03 05:07:58;;;;;;;24.58;21.98;;;;;;;;;;6155011;23;20454;-77
2021/12/03 05:10:28;;;;;;;23.75;20.90;;;;;;;;;;6132207;23;20043;-77
2021/12/03 05:12:57;;;;;;;28.13;22.58;;;;;;;;;;6129018;23;20020;-77
2021/12/03 05:15:23;;;;;;;24.92;21.88;;;;;;;;;;6154644;23;20390;-77
2021/12/03 05:17:49;;;;;;;27.70;21.75;;;;;;;;;;6179588;23;20287;-77
2021/12/03 05:20:15;;;;;;;26.77;21.30;;;;;;;;;;6152407;23;20051;-78
2021/12/03 05:22:41;;;;;;;27.23;21.17;;;;;;;;;;6179492;23;20342;-76
2021/12/03 05:25:08;;;;;;;24.90;21.92;;;;;;;;;;6177682;23;20024;-77
2021/12/03 05:27:34;;;;;;;26.08;21.13;;;;;;;;;;6152871;23;20100;-77
2021/12/03 05:30:00;;;;;;;25.63;20.17;;;;;;;;;;6126705;23;20016;-77
2021/12/03 05:32:26;;;;;;;29.45;21.35;;;;;;;;;;6129055;23;20020;-77
2021/12/03 05:34:52;;;;;;;29.40;21.70;;;;;;;;;;6178802;23;20028;-77
2021/12/03 05:37:18;;;;;;;27.48;21.73;;;;;;;;;;6125991;23;20086;-76
2021/12/03 05:39:45;;;;;;;26.73;21.83;;;;;;;;;;6153523;23;20044;-77
2021/12/03 05:42:11;;;;;;;25.40;22.03;;;;;;;;;;6127296;23;20111;-77
2021/12/03 05:44:37;;;;;;;26.98;22.55;;;;;;;;;;6129462;23;20028;-77
2021/12/03 05:47:03;;;;;;;27.37;22.87;;;;;;;;;;6151470;23;20127;-77
2021/12/03 05:49:29;;;;;;;24.20;21.55;;;;;;;;;;6179722;23;20021;-77
2021/12/03 05:51:55;;;;;;;28.15;23.02;;;;;;;;;;6154059;23;20036;-76
2021/12/03 05:54:22;;;;;;;26.02;21.33;;;;;;;;;;6126993;23;20052;-77
2021/12/03 05:56:48;;;;;;;28.25;21.00;;;;;;;;;;6178255;23;20031;-76
2021/12/03 05:59:14;;;;;;;27.85;21.95;;;;;;;;;;6151466;23;20064;-76
2021/12/03 06:01:40;;;;;;;28.73;22.20;;;;;;;;;;6127172;23;20016;-77
2021/12/03 06:04:06;;;;;;;24.33;20.48;;;;;;;;;;6125410;23;20021;-77
2021/12/03 06:06:32;;;;;;;31.02;23.08;;;;;;;;;;6129118;23;20028;-77
2021/12/03 06:08:58;;;;;;;29.83;22.50;;;;;;;;;;6127120;23;20020;-76
2021/12/03 06:11:25;;;;;;;29.98;21.83;;;;;;;;;;6153600;23;20027;-77
2021/12/03 06:13:51;;;;;;;29.75;20.92;;;;;;;;;;6153245;23;20016;-77
2021/12/03 06:16:17;;;;;;;29.00;21.92;;;;;;;;;;6151790;23;20020;-77
2021/12/03 06:18:43;;;;;;;24.63;19.92;;;;;;;;;;6129300;23;20338;-77
2021/12/03 06:21:10;;;;;;;26.73;20.40;;;;;;;;;;6126255;23;20021;-77
2021/12/03 06:23:36;;;;;;;29.38;20.88;;;;;;;;;;6152848;23;20025;-77
2021/12/03 06:26:02;;;;;;;28.42;20.65;;;;;;;;;;6125829;23;20062;-77
2021/12/03 06:28:29;;;;;;;29.73;20.67;;;;;;;;;;6152512;23;20017;-76
2021/12/03 06:30:57;;;;;;;28.70;20.52;;;;;;;;;;6152467;23;20024;-76
2021/12/03 06:33:23;;;;;;;27.38;19.73;;;;;;;;;;6151483;23;20031;-76
2021/12/03 06:35:49;;;;;;;28.02;19.85;;;;;;;;;;6177247;23;20035;-76
2021/12/03 06:38:15;;;;;;;27.85;19.77;;;;;;;;;;6150690;23;20095;-77
2021/12/03 06:40:42;;;;;;;27.30;18.98;;;;;;;;;;6153006;23;20166;-77
2021/12/03 06:43:08;;;;;;;29.45;19.48;;;;;;;;;;6149866;23;20020;-76
2021/12/03 06:45:34;;;;;;;27.20;19.60;;;;;;;;;;6152440;23;20024;-77
2021/12/03 06:48:00;;;;;;;26.60;18.83;;;;;;;;;;6150514;23;20017;-77
2021/12/03 06:50:26;;;;;;;24.63;18.63;;;;;;;;;;6152827;23;20315;-77
2021/12/03 06:53:02;;;;;;;25.98;17.48;;;;;;;;;;6128530;23;20037;-77
2021/12/03 06:55:28;;;;;;;23.05;17.20;;;;;;;;;;6154624;23;20120;-78
2021/12/03 06:57:54;;;;;;;24.05;19.10;;;;;;;;;;6176845;23;20020;-77
2021/12/03 07:00:22;;;;;;;26.88;18.08;;;;;;;;;;6175717;23;20070;-77
2021/12/03 07:02:49;;;;;;;26.52;17.55;;;;;;;;;;6126282;23;20024;-77
2021/12/03 07:05:15;;;;;;;24.08;17.20;;;;;;;;;;6123558;23;20024;-77
2021/12/03 07:07:41;;;;;;;23.17;18.38;;;;;;;;;;6176364;23;20016;-77
2021/12/03 07:10:07;;;;;;;25.65;18.60;;;;;;;;;;6126829;23;20016;-77
2021/12/03 07:12:34;;;;;;;27.98;17.52;;;;;;;;;;6177145;23;20017;-77
2021/12/03 07:15:00;;;;;;;31.25;18.58;;;;;;;;;;6150938;23;20445;-77
2021/12/03 07:17:30;;;;;;;26.25;18.17;;;;;;;;;;6151650;23;20028;-78
2021/12/03 07:19:57;;;;;;;30.27;18.15;;;;;;;;;;6125920;23;20322;-78
2021/12/03 07:22:24;;;;;;;26.07;18.17;;;;;;;;;;6125038;23;20080;-80
2021/12/03 07:24:55;;;;;;;29.45;18.98;;;;;;;;;;6132151;23;20016;-82
2021/12/03 07:27:23;;;;;;;31.30;19.50;;;;;;;;;;6124906;23;20017;-79
2021/12/03 07:29:49;;;;;;;30.75;20.42;;;;;;;;;;6176897;23;20024;-79
2021/12/03 07:32:15;;;;;;;33.53;20.98;;;;;;;;;;6149154;23;20020;-78
2021/12/03 07:34:41;;;;;;;31.63;21.80;;;;;;;;;;6178867;23;20031;-77
2021/12/03 07:37:08;;;;;;;36.40;22.55;;;;;;;;;;6175721;23;20028;-77
2021/12/03 07:39:34;;;;;;;29.85;21.77;;;;;;;;;;6204804;23;20025;-79
2021/12/03 07:42:00;;;;;;;33.88;21.73;;;;;;;;;;6176511;23;20021;-77
2021/12/03 07:44:26;;;;;;;32.28;22.13;;;;;;;;;;6206294;23;20017;-77
2021/12/03 07:46:52;;;;;;;36.28;22.27;;;;;;;;;;6203854;23;20013;-77
2021/12/03 07:49:20;;;;;;;33.10;21.17;;;;;;;;;;6174474;23;20027;-77
2021/12/03 07:51:46;;;;;;;33.83;22.63;;;;;;;;;;6177231;23;20021;-78
2021/12/03 07:54:12;;;;;;;40.50;22.55;;;;;;;;;;6149933;23;20016;-76
2021/12/03 07:56:38;;;;;;;42.45;22.83;;;;;;;;;;6205797;23;20152;-76
2021/12/03 07:59:04;;;;;;;33.92;22.65;;;;;;;;;;6173048;23;20284;-76
2021/12/03 08:01:31;;;;;;;36.05;22.55;;;;;;;;;;6206337;23;20027;-76
2021/12/03 08:03:57;;;;;;;39.08;23.80;;;;;;;;;;6181262;23;20306;-76
2021/12/03 08:06:23;;;;;;;40.70;24.55;;;;;;;;;;6133106;23;20048;-76
2021/12/03 08:08:49;;;;;;;36.78;24.35;;;;;;;;;;6183182;23;20079;-76
2021/12/03 08:11:15;;;;;;;37.05;25.30;;;;;;;;;;6131262;23;20111;-76
2021/12/03 08:13:41;;;;;;;40.92;24.55;;;;;;;;;;6182926;23;20380;-76
2021/12/03 08:16:07;;;;;;;43.15;25.55;;;;;;;;;;6154879;23;20024;-77
2021/12/03 08:18:36;;;;;;;37.47;24.75;;;;;;;;;;6133021;23;20162;-76
2021/12/03 08:21:05;;;;;;;42.17;24.95;;;;;;;;;;6130532;23;20059;-76
2021/12/03 08:23:32;;;;;;;38.30;25.17;;;;;;;;;;6209252;23;20333;-76
2021/12/03 08:25:58;;;;;;;38.55;26.38;;;;;;;;;;6155972;23;20020;-77
2021/12/03 08:28:24;;;;;;;39.20;25.05;;;;;;;;;;6208932;23;20013;-77
2021/12/03 08:30:50;;;;;;;44.17;26.23;;;;;;;;;;6207678;23;20071;-77
2021/12/03 08:33:17;;;;;;;42.22;26.45;;;;;;;;;;6152004;23;20386;-78
2021/12/03 08:35:43;;;;;;;45.42;26.50;;;;;;;;;;6205780;23;20028;-79
2021/12/03 08:38:11;;;;;;;47.08;28.45;;;;;;;;;;6153335;23;20020;-78
2021/12/03 08:40:37;;;;;;;;;;;;;;;;;;6156337;23;20039;-80
2021/12/03 08:43:03;;;;;;;40.78;25.92;;;;;;;;;;6179681;23;19916;-79
2021/12/03 08:45:29;;;;;;;46.90;27.90;;;;;;;;;;6153170;23;20024;-79
2021/12/03 08:47:59;;;;;;;48.28;29.08;;;;;;;;;;6180613;23;20013;-80
2021/12/03 08:50:30;;;;;;;51.70;31.52;;;;;;;;;;6156650;23;20032;-80
2021/12/03 08:55:29;;;;;;;55.58;32.78;;;;;;;;;;6156955;23;20035;-78
2021/12/03 08:57:55;;;;;;;50.55;32.70;;;;;;;;;;6158122;23;20028;-77
2021/12/03 09:00:21;;;;;;;54.08;32.78;;;;;;;;;;6181819;23;20052;-78
2021/12/03 09:02:48;;;;;;;59.70;34.75;;;;;;;;;;6210106;23;20017;-77
2021/12/03 09:05:14;;;;;;;56.92;33.85;;;;;;;;;;6181024;23;20017;-77
2021/12/03 09:07:40;;;;;;;57.85;35.08;;;;;;;;;;6158319;23;20021;-77
2021/12/03 09:10:07;;;;;;;57.22;33.75;;;;;;;;;;6208485;23;20298;-77
2021/12/03 09:12:33;;;;;;;60.47;35.53;;;;;;;;;;6182638;23;20465;-77
2021/12/03 09:15:10;;;;;;;57.13;34.88;;;;;;;;;;6208615;23;20024;-77
2021/12/03 09:20:19;;;;;;;64.28;36.55;;;;;;;;;;6181329;23;20067;-76
2021/12/03 09:22:51;;;;;;;57.45;35.17;;;;;;;;;;6161409;23;20469;-76
2021/12/03 09:25:21;;;;;;;67.32;36.83;;;;;;;;;;6181352;23;20047;-77
2021/12/03 09:27:47;;;;;;;64.47;35.72;;;;;;;;;;6184023;23;20066;-76
2021/12/03 09:30:14;;;;;;;63.42;34.85;;;;;;;;;;6208181;23;20020;-76
2021/12/03 09:32:42;;;;;;;58.40;34.28;;;;;;;;;;6209637;23;20383;-76
2021/12/03 09:35:09;;;;;;;68.28;36.30;;;;;;;;;;6181521;23;20025;-77
2021/12/03 09:37:35;;;;;;;62.55;34.67;;;;;;;;;;6210792;23;20063;-77
2021/12/03 09:40:06;;;;;;;62.92;34.08;;;;;;;;;;6181949;23;20078;-77
2021/12/03 09:42:35;;;;;;;60.42;34.55;;;;;;;;;;6182932;23;20028;-76
2021/12/03 09:45:01;;;;;;;69.35;36.00;;;;;;;;;;6208000;23;20017;-77
2021/12/03 09:47:27;;;;;;;61.22;33.22;;;;;;;;;;6182896;23;20012;-77
2021/12/03 09:49:55;;;;;;;63.17;36.13;;;;;;;;;;6158496;23;20016;-77
2021/12/03 09:52:32;;;;;;;56.38;32.88;;;;;;;;;;6159323;23;20452;-76
2021/12/03 09:55:02;;;;;;;54.35;31.83;;;;;;;;;;6208199;23;20063;-77
2021/12/03 09:57:41;;;;;;;65.13;34.15;;;;;;;;;;6183384;23;20030;-77
2021/12/03 10:13:29;;;;;;;55.67;29.42;;;;;;;;;;6182968;23;20027;-76
2021/12/03 10:16:11;;;;;;;54.17;28.23;;;;;;;;;;6159582;23;20029;-76
2021/12/03 10:21:39;;;;;;;51.65;27.38;;;;;;;;;;6157542;23;20083;-77
2021/12/03 10:29:31;;;;;;;46.22;24.83;;;;;;;;;;6181293;23;20383;-77
2021/12/03 10:35:20;;;;;;;46.10;24.52;;;;;;;;;;6162994;23;20028;-77
2021/12/03 10:40:56;;;;;;;47.22;22.60;;;;;;;;;;6189543;23;20329;-76
2021/12/03 10:46:17;;;;;;;39.45;20.98;;;;;;;;;;6184238;23;20028;-77
2021/12/03 10:51:29;;;;;;;37.55;19.15;;;;;;;;;;6158011;23;20024;-76
2021/12/03 10:54:28;;;;;;;37.30;19.05;;;;;;;;;;6161649;23;20024;-77
2021/12/03 11:00:32;;;;;;;35.65;16.77;;;;;;;;;;6161228;23;20070;-77
2021/12/03 11:51:40;;;;;;;10.48;5.13;;;;;;;;;;6189245;23;20387;-80
2021/12/03 12:14:26;;;;;;;18.98;7.15;;;;;;;;;;6208008;23;20017;-80
2021/12/03 12:27:16;;;;;;;15.65;7.35;;;;;;;;;;6208369;23;20025;-79
2021/12/03 13:18:51;;;;;;;12.85;8.55;;;;;;;;;;6207845;23;20025;-79
2021/12/03 13:59:34;;;;;;;17.08;9.43;;;;;;;;;;6178037;23;20107;-77
2021/12/03 14:41:07;;;;;;;14.10;7.65;;;;;;;;;;5115326;27;20670;-77
2021/12/03 14:43:44;;;;;;;12.85;7.90;;;;;;;;;;5096995;27;20043;-77
2021/12/03 14:46:35;;;;;;;13.05;7.93;;;;;;;;;;5095721;27;20075;-78
2021/12/03 14:54:45;;;;;;;14.32;7.90;;;;;;;;;;5113662;27;20054;-78
2021/12/03 14:57:15;;;;;;;50.92;10.77;;;;;;;;;;5097732;27;20042;-78
2021/12/03 15:00:08;;;;;;;19.52;9.43;;;;;;;;;;5095536;27;20556;-77
2021/12/03 15:02:46;;;;;;;22.48;8.65;;;;;;;;;;5133554;27;20054;-77
2021/12/03 15:07:44;;;;;;;29.35;9.15;;;;;;;;;;5130848;27;20445;-77
2021/12/03 15:31:18;;;;;;;15.75;9.30;;;;;;;;;;5087996;28;20097;-78
2021/12/03 15:34:01;;;;;;;18.25;8.52;;;;;;;;;;5089533;28;20036;-77
2021/12/03 15:36:46;;;;;;;20.60;10.48;;;;;;;;;;5061681;28;20082;-78
2021/12/03 16:04:34;;;;;;;10.40;9.23;;;;;;;;;;5064625;28;20185;-77
2021/12/03 16:12:22;;;;;;;14.02;9.57;;;;;;;;;;5055635;28;20078;-78
2021/12/03 16:15:11;;;;;;;13.65;10.95;;;;;;;;;;5046525;28;20067;-78
2021/12/03 16:17:56;;;;;;;13.65;10.43;;;;;;;;;;5062073;28;20732;-77
2021/12/03 16:26:18;;;;;;;22.00;12.07;;;;;;;;;;5037415;28;20132;-77
2021/12/03 16:46:52;;;;;;;;;;;;;;;;;;5035276;28;20097;-77
2021/12/03 16:53:04;;;;;;;16.73;13.05;;;;;;;;;;5045046;28;20602;-78
2021/12/03 16:55:34;;;;;;;16.85;15.05;;;;;;;;;;5021102;28;20041;-78
2021/12/03 16:58:05;;;;;;;16.05;14.32;;;;;;;;;;5029181;28;21472;-77
2021/12/03 17:00:41;;;;;;;17.67;14.43;;;;;;;;;;5047929;28;20052;-77
2021/12/03 17:03:15;;;;;;;17.73;15.82;;;;;;;;;;5048210;28;20040;-78
2021/12/03 17:48:13;;;;;;;25.98;22.08;;;;;;;;;;5075512;28;20067;-80
2021/12/03 17:56:25;;;;;;;28.17;21.58;;;;;;;;;;5094618;27;20043;-79
2021/12/03 18:01:47;;;;;;;29.45;22.90;;;;;;;;;;5076005;28;20123;-83
2021/12/03 18:04:34;;;;;;;28.33;23.33;;;;;;;;;;5056418;28;20047;-82
2021/12/03 18:07:26;;;;;;;29.17;23.98;;;;;;;;;;5055272;28;20039;-81
2021/12/03 18:56:55;;;;;;;33.40;25.92;;;;;;;;;;5059706;28;20051;-80
2021/12/03 18:59:24;;;;;;;37.90;27.27;;;;;;;;;;5055239;28;20442;-79
2021/12/03 19:01:50;;;;;;;36.05;27.35;;;;;;;;;;5039629;28;20054;-79
2021/12/03 19:04:21;;;;;;;35.45;27.20;;;;;;;;;;5072858;28;20082;-79
2021/12/03 19:06:56;;;;;;;34.05;25.70;;;;;;;;;;5045956;28;21092;-79
2021/12/03 19:09:27;;;;;;;37.80;29.00;;;;;;;;;;5046933;28;20040;-79
2021/12/03 19:12:02;;;;;;;40.80;29.88;;;;;;;;;;5067732;28;20043;-79
2021/12/03 19:14:31;;;;;;;37.78;29.05;;;;;;;;;;5049877;28;20154;-79
2021/12/03 19:17:00;;;;;;;38.00;28.45;;;;;;;;;;5049966;28;20028;-80
2021/12/03 19:19:28;;;;;;;41.55;31.30;;;;;;;;;;5064624;28;20039;-79
2021/12/03 19:21:58;;;;;;;39.15;29.05;;;;;;;;;;5050768;27;20123;-80
2021/12/03 19:24:58;;;;;;;43.05;29.73;;;;;;;;;;5067340;28;20051;-80
2021/12/03 19:27:25;;;;;;;44.42;31.17;;;;;;;;;;5057869;28;20040;-79
2021/12/03 19:29:54;;;;;;;38.20;28.67;;;;;;;;;;5065275;28;20036;-78
2021/12/03 19:32:23;;;;;;;42.22;32.75;;;;;;;;;;5060642;28;20061;-80
2021/12/03 19:38:57;;;;;;;42.88;29.50;;;;;;;;;;5097632;27;20035;-82
2021/12/03 19:41:50;;;;;;;37.75;28.13;;;;;;;;;;5037272;28;20494;-81
2021/12/03 19:44:33;;;;;;;41.92;29.92;;;;;;;;;;5039895;28;20052;-78
2021/12/03 19:50:41;;;;;;;42.25;29.65;;;;;;;;;;5030091;28;20045;-79
2021/12/03 19:53:39;;;;;;;45.10;31.13;;;;;;;;;;4980287;28;20041;-78
2021/12/03 19:56:32;;;;;;;43.15;29.27;;;;;;;;;;4982833;28;20042;-79
2021/12/03 19:59:34;;;;;;;39.63;27.75;;;;;;;;;;5014961;28;20053;-79
2021/12/03 20:02:18;;;;;;;39.90;27.77;;;;;;;;;;4998340;28;20034;-78
2021/12/03 20:04:54;;;;;;;41.28;27.92;;;;;;;;;;4988812;28;20046;-77
2021/12/03 20:07:47;;;;;;;40.60;29.10;;;;;;;;;;5033178;28;20095;-77
2021/12/03 20:10:21;;;;;;;43.10;30.13;;;;;;;;;;5015865;28;20498;-77
2021/12/03 20:13:00;;;;;;;41.95;28.48;;;;;;;;;;4992382;28;20163;-78
2021/12/03 20:19:27;;;;;;;37.17;27.05;;;;;;;;;;5025872;28;20048;-78
2021/12/03 20:32:24;;;;;;;41.85;27.95;;;;;;;;;;5048304;28;20143;-79
2021/12/03 20:37:49;;;;;;;41.03;27.08;;;;;;;;;;5033286;28;20056;-79
2021/12/03 20:40:27;;;;;;;43.42;26.80;;;;;;;;;;5017465;28;20044;-80
2021/12/03 20:43:23;;;;;;;40.38;27.70;;;;;;;;;;5019395;28;20415;-78
2021/12/03 20:48:42;;;;;;;43.53;26.45;;;;;;;;;;5012797;28;20039;-80
2021/12/03 21:08:16;;;;;;;43.03;26.77;;;;;;;;;;5049249;28;20037;-77
2021/12/03 21:13:56;;;;;;;38.15;24.58;;;;;;;;;;5046006;28;20045;-79
2021/12/03 21:21:44;;;;;;;40.17;26.50;;;;;;;;;;5036605;28;20131;-79
2021/12/03 21:24:17;;;;;;;35.40;23.95;;;;;;;;;;5076693;27;20059;-80
2021/12/03 21:26:56;;;;;;;35.35;23.48;;;;;;;;;;5049964;28;20048;-80
2021/12/03 21:29:50;;;;;;;33.83;22.95;;;;;;;;;;5034423;28;20044;-78
2021/12/03 21:42:44;;;;;;;35.55;23.92;;;;;;;;;;5055431;28;20500;-79
2021/12/03 21:45:10;;;;;;;35.35;24.95;;;;;;;;;;5034880;28;20044;-78
2021/12/03 21:47:36;;;;;;;31.10;21.65;;;;;;;;;;5048978;28;20127;-79
2021/12/03 21:50:03;;;;;;;30.80;22.17;;;;;;;;;;5063028;28;20049;-79
2021/12/03 21:52:29;;;;;;;32.50;22.75;;;;;;;;;;5050164;28;20155;-78
2021/12/03 21:54:55;;;;;;;32.67;21.95;;;;;;;;;;5081649;27;20487;-78
2021/12/03 21:57:26;;;;;;;29.08;20.75;;;;;;;;;;5046124;28;20651;-82
2021/12/03 21:59:53;;;;;;;31.75;21.55;;;;;;;;;;5046345;28;20052;-79
2021/12/03 22:02:19;;;;;;;32.38;21.52;;;;;;;;;;5044097;28;20483;-79
2021/12/03 22:04:45;;;;;;;33.88;22.65;;;;;;;;;;5064416;28;20040;-78
2021/12/03 22:07:29;;;;;;;31.45;22.05;;;;;;;;;;5063786;28;20064;-78
2021/12/03 22:09:57;;;;;;;32.08;21.45;;;;;;;;;;5064986;28;20347;-78
2021/12/03 22:12:29;;;;;;;32.78;22.02;;;;;;;;;;5047760;28;20056;-78
2021/12/03 22:14:55;;;;;;;30.00;21.45;;;;;;;;;;5050997;28;20032;-78
2021/12/03 22:17:21;;;;;;;30.85;22.30;;;;;;;;;;5042500;28;20048;-77
2021/12/03 22:19:48;;;;;;;32.78;21.58;;;;;;;;;;5068251;28;20040;-78
2021/12/03 22:22:15;;;;;;;31.10;22.08;;;;;;;;;;5033138;28;20072;-78
2021/12/03 22:24:44;;;;;;;31.70;21.90;;;;;;;;;;5068919;28;20040;-78
2021/12/03 22:27:11;;;;;;;34.47;21.85;;;;;;;;;;5052946;28;20093;-78
2021/12/03 22:29:40;;;;;;;31.60;21.77;;;;;;;;;;5068342;28;20085;-78
2021/12/03 22:32:07;;;;;;;31.10;22.00;;;;;;;;;;5066680;28;20056;-78
2021/12/03 22:34:36;;;;;;;32.80;22.67;;;;;;;;;;5052731;28;20196;-77
2021/12/03 22:37:02;;;;;;;33.67;22.45;;;;;;;;;;5068819;28;20131;-77
2021/12/03 22:39:33;;;;;;;33.22;22.83;;;;;;;;;;5061166;28;20090;-78
2021/12/03 22:42:00;;;;;;;34.95;23.23;;;;;;;;;;5050639;28;20553;-77
2021/12/03 22:44:27;;;;;;;33.20;21.67;;;;;;;;;;5075254;28;21351;-78
2021/12/03 22:52:22;;;;;;;31.98;21.42;;;;;;;;;;5074677;28;22547;-77